createdAt,value
2023-05-24T00:19:50.840Z,48.55
2023-05-24T00:20:50.912Z,48.88
2023-05-24T00:21:50.766Z,48.84
2023-05-24T00:22:50.784Z,48.27
2023-05-24T00:23:50.763Z,48.64
2023-05-24T00:24:50.956Z,48.82
2023-05-24T00:25:50.750Z,48.67
2023-05-24T00:26:50.735Z,48.45
2023-05-24T00:27:50.734Z,48.50
2023-05-24T00:28:50.735Z,48.61
2023-05-24T00:29:50.960Z,48.71
2023-05-24T00:30:50.713Z,48.58
2023-05-24T00:31:50.746Z,48.30
2023-05-24T00:32:50.739Z,48.24
2023-05-24T00:33:50.685Z,48.52
2023-05-24T00:34:50.680Z,48.51
2023-05-24T00:35:50.700Z,48.57
2023-05-24T00:36:50.680Z,48.35
2023-05-24T00:37:50.689Z,48.61
2023-05-24T00:38:50.665Z,48.36
2023-05-24T00:39:50.655Z,48.36
2023-05-24T00:40:50.652Z,47.83
2023-05-24T00:41:50.654Z,48.52
2023-05-24T00:42:50.647Z,48.69
2023-05-24T00:43:50.634Z,48.60
2023-05-24T00:44:50.634Z,48.03
2023-05-24T00:45:50.700Z,48.55
2023-05-24T00:46:50.619Z,47.94
2023-05-24T00:47:50.615Z,48.26
2023-05-24T00:48:50.602Z,47.75
2023-05-24T00:49:50.638Z,47.62
2023-05-24T00:50:50.607Z,47.67
2023-05-24T00:51:50.570Z,47.48
2023-05-24T00:52:50.588Z,48.36
2023-05-24T00:53:50.573Z,48.51
2023-05-24T00:54:50.566Z,48.29
2023-05-24T00:55:50.540Z,48.16
2023-05-24T00:56:50.550Z,47.93
2023-05-24T00:57:50.539Z,48.54
2023-05-24T00:58:50.527Z,47.99
2023-05-24T00:59:50.538Z,47.45
2023-05-24T01:00:50.506Z,48.05
2023-05-24T01:01:50.571Z,48.07
2023-05-24T01:02:50.606Z,47.90
2023-05-24T01:03:50.658Z,47.78
2023-05-24T01:04:50.563Z,48.21
2023-05-24T01:05:50.576Z,48.22
2023-05-24T01:06:50.622Z,48.09
2023-05-24T01:07:50.625Z,48.32
2023-05-24T01:08:50.655Z,48.16
2023-05-24T01:09:50.689Z,47.51
2023-05-24T01:10:50.713Z,47.40
2023-05-24T01:11:50.783Z,47.82
2023-05-24T01:12:50.773Z,48.10
2023-05-24T01:13:50.803Z,47.81
2023-05-24T01:14:50.843Z,48.06
2023-05-24T01:15:50.899Z,47.51
2023-05-24T01:16:50.891Z,47.53
2023-05-24T01:17:50.971Z,47.72
2023-05-24T01:18:50.941Z,47.89
2023-05-24T01:19:50.997Z,47.31
2023-05-24T01:20:51.062Z,47.29
2023-05-24T01:21:50.991Z,47.38
2023-05-24T01:22:50.985Z,47.61
2023-05-24T01:23:50.992Z,48.28
2023-05-24T01:24:50.999Z,48.12
2023-05-24T01:25:51.025Z,48.16
2023-05-24T01:26:51.034Z,47.46
2023-05-24T01:27:51.085Z,48.23
2023-05-24T01:28:51.095Z,48.31
2023-05-24T01:29:51.120Z,48.29
2023-05-24T01:30:51.134Z,48.42
2023-05-24T01:31:51.246Z,48.62
2023-05-24T01:32:51.272Z,48.49
2023-05-24T01:33:51.250Z,47.98
2023-05-24T01:34:51.257Z,48.44
2023-05-24T01:35:51.269Z,48.66
2023-05-24T01:36:51.286Z,48.33
2023-05-24T01:37:51.306Z,48.35
2023-05-24T01:38:51.318Z,48.21
2023-05-24T01:39:51.318Z,48.16
2023-05-24T01:40:51.357Z,48.11
2023-05-24T01:41:51.356Z,47.82
2023-05-24T01:42:51.392Z,48.26
2023-05-24T01:43:51.406Z,48.15
2023-05-24T01:44:51.430Z,47.89
2023-05-24T01:45:51.454Z,47.61
2023-05-24T01:46:51.543Z,47.41
2023-05-24T01:47:51.547Z,47.38
2023-05-24T01:48:51.488Z,47.40
2023-05-24T01:49:51.490Z,47.22
2023-05-24T01:50:51.499Z,47.99
2023-05-24T01:51:51.612Z,47.68
2023-05-24T01:52:51.508Z,47.66
2023-05-24T01:53:51.547Z,47.71
2023-05-24T01:54:51.548Z,47.55
2023-05-24T01:55:51.564Z,47.48
2023-05-24T01:56:51.576Z,47.20
2023-05-24T01:57:51.555Z,47.11
2023-05-24T01:58:51.563Z,47.08
2023-05-24T01:59:51.547Z,47.43
2023-05-24T02:00:51.624Z,47.82
2023-05-24T02:01:51.597Z,47.51
2023-05-24T02:02:51.715Z,47.50
2023-05-24T02:03:51.580Z,47.22
2023-05-24T02:04:51.612Z,47.52
2023-05-24T02:05:51.631Z,48.07
2023-05-24T02:06:51.665Z,47.94
2023-05-24T02:07:51.689Z,47.34
2023-05-24T02:08:51.705Z,47.09
2023-05-24T02:09:51.731Z,47.08
2023-05-24T02:10:51.751Z,47.44
2023-05-24T02:11:51.780Z,47.42
2023-05-24T02:12:51.786Z,47.22
2023-05-24T02:13:51.789Z,47.19
2023-05-24T02:14:51.794Z,47.15
2023-05-24T02:15:51.811Z,47.35
2023-05-24T02:16:51.869Z,47.65
2023-05-24T02:17:51.865Z,47.17
2023-05-24T02:18:51.829Z,47.30
2023-05-24T02:19:51.852Z,47.29
2023-05-24T02:20:51.829Z,47.29
2023-05-24T02:21:51.832Z,47.25
2023-05-24T02:22:51.824Z,47.37
2023-05-24T02:23:51.828Z,47.23
2023-05-24T02:24:51.822Z,47.17
2023-05-24T02:25:51.835Z,47.31
2023-05-24T02:26:51.856Z,47.32
2023-05-24T02:27:51.847Z,47.22
2023-05-24T02:28:51.828Z,47.19
2023-05-24T02:29:51.851Z,47.62
2023-05-24T02:30:51.881Z,47.21
2023-05-24T02:31:51.862Z,47.40
2023-05-24T02:32:51.980Z,47.31
2023-05-24T02:33:51.891Z,47.27
2023-05-24T02:34:51.935Z,47.26
2023-05-24T02:35:51.933Z,47.74
2023-05-24T02:36:51.960Z,47.47
2023-05-24T02:37:51.982Z,47.23
2023-05-24T02:38:51.997Z,47.37
2023-05-24T02:39:52.035Z,47.16
2023-05-24T02:40:52.079Z,47.50
2023-05-24T02:41:52.068Z,47.55
2023-05-24T02:42:52.096Z,47.25
2023-05-24T02:43:52.127Z,47.27
2023-05-24T02:44:52.176Z,47.12
2023-05-24T02:45:52.213Z,47.06
2023-05-24T02:46:52.218Z,47.31
2023-05-24T02:47:52.279Z,47.32
2023-05-24T02:48:52.307Z,47.32
2023-05-24T02:49:52.319Z,47.78
2023-05-24T02:50:52.320Z,47.58
2023-05-24T02:51:52.331Z,47.22
2023-05-24T02:52:52.364Z,47.51
2023-05-24T02:53:52.389Z,47.37
2023-05-24T02:54:52.389Z,47.47
2023-05-24T02:55:52.403Z,47.39
2023-05-24T02:56:52.416Z,47.12
2023-05-24T02:57:52.423Z,47.17
2023-05-24T02:58:52.483Z,47.21
2023-05-24T02:59:52.479Z,47.89
2023-05-24T03:00:52.492Z,47.32
2023-05-24T03:01:52.570Z,47.26
2023-05-24T03:02:52.705Z,47.41
2023-05-24T03:03:52.695Z,47.77
2023-05-24T03:04:52.585Z,47.48
2023-05-24T03:05:52.597Z,47.26
2023-05-24T03:06:52.623Z,47.26
2023-05-24T03:07:52.629Z,47.23
2023-05-24T03:08:52.672Z,47.30
2023-05-24T03:09:52.692Z,47.60
2023-05-24T03:10:52.732Z,47.40
2023-05-24T03:11:52.765Z,47.32
2023-05-24T03:12:52.800Z,47.48
2023-05-24T03:13:52.848Z,47.32
2023-05-24T03:14:52.907Z,47.38
2023-05-24T03:15:52.988Z,47.93
2023-05-24T03:16:52.965Z,47.73
2023-05-24T03:17:53.071Z,47.78
2023-05-24T03:18:53.058Z,47.38
2023-05-24T03:19:53.114Z,47.48
2023-05-24T03:20:53.108Z,47.33
2023-05-24T03:21:53.134Z,47.43
2023-05-24T03:22:53.208Z,47.78
2023-05-24T03:23:53.177Z,47.47
2023-05-24T03:24:53.179Z,47.24
2023-05-24T03:25:53.222Z,47.34
2023-05-24T03:26:53.200Z,47.43
2023-05-24T03:27:53.201Z,47.46
2023-05-24T03:28:53.214Z,47.16
2023-05-24T03:29:53.221Z,47.31
2023-05-24T03:30:53.230Z,47.28
2023-05-24T03:31:53.243Z,47.44
2023-05-24T03:32:53.400Z,47.42
2023-05-24T03:33:53.245Z,47.38
2023-05-24T03:34:53.254Z,47.32
2023-05-24T03:35:53.258Z,47.41
2023-05-24T03:36:53.261Z,47.82
2023-05-24T03:37:53.255Z,47.98
2023-05-24T03:38:53.250Z,47.31
2023-05-24T03:39:53.249Z,47.44
2023-05-24T03:40:53.259Z,47.12
2023-05-24T03:41:53.261Z,47.29
2023-05-24T03:42:53.254Z,47.29
2023-05-24T03:43:53.243Z,47.19
2023-05-24T03:44:53.259Z,47.58
2023-05-24T03:45:53.325Z,47.82
2023-05-24T03:46:53.299Z,47.48
2023-05-24T03:47:53.357Z,47.50
2023-05-24T03:48:53.321Z,47.48
2023-05-24T03:49:53.326Z,47.46
2023-05-24T03:50:53.347Z,47.84
2023-05-24T03:51:53.341Z,47.48
2023-05-24T03:52:53.337Z,47.33
2023-05-24T03:53:53.354Z,47.30
2023-05-24T03:54:53.359Z,47.14
2023-05-24T03:55:53.388Z,47.33
2023-05-24T03:56:53.412Z,47.34
2023-05-24T03:57:53.445Z,47.37
2023-05-24T03:58:53.433Z,47.39
2023-05-24T03:59:53.456Z,47.38
2023-05-24T04:00:53.468Z,47.45
2023-05-24T04:01:53.507Z,47.32
2023-05-24T04:02:53.515Z,47.26
2023-05-24T04:03:53.581Z,47.43
2023-05-24T04:04:53.493Z,47.21
2023-05-24T04:05:53.493Z,47.25
2023-05-24T04:06:53.513Z,47.23
2023-05-24T04:07:53.515Z,47.16
2023-05-24T04:08:53.527Z,47.18
2023-05-24T04:09:53.547Z,47.28
2023-05-24T04:10:53.582Z,47.29
2023-05-24T04:11:53.578Z,47.19
2023-05-24T04:12:53.573Z,47.37
2023-05-24T04:13:53.558Z,47.42
2023-05-24T04:14:53.583Z,47.85
2023-05-24T04:15:53.631Z,48.24
2023-05-24T04:16:53.647Z,47.45
2023-05-24T04:17:53.681Z,47.20
2023-05-24T04:18:53.665Z,47.20
2023-05-24T04:19:53.757Z,47.24
2023-05-24T04:20:53.605Z,47.07
2023-05-24T04:21:53.601Z,47.02
2023-05-24T04:22:53.632Z,47.66
2023-05-24T04:23:53.619Z,47.34
2023-05-24T04:24:53.648Z,47.69
2023-05-24T04:25:53.590Z,47.35
2023-05-24T04:26:53.577Z,47.31
2023-05-24T04:27:53.596Z,47.55
2023-05-24T04:28:53.573Z,47.27
2023-05-24T04:29:53.574Z,47.33
2023-05-24T04:30:53.608Z,47.51
2023-05-24T04:31:53.603Z,47.32
2023-05-24T04:32:53.585Z,47.44
2023-05-24T04:33:53.577Z,47.14
2023-05-24T04:34:53.577Z,47.18
2023-05-24T04:35:53.591Z,47.14
2023-05-24T04:36:53.564Z,47.56
2023-05-24T04:37:53.559Z,47.07
2023-05-24T04:38:53.560Z,47.32
2023-05-24T04:39:53.560Z,47.25
2023-05-24T04:40:53.593Z,47.42
2023-05-24T04:41:53.558Z,47.40
2023-05-24T04:42:53.564Z,47.18
2023-05-24T04:43:53.555Z,47.16
2023-05-24T04:44:53.576Z,47.13
2023-05-24T04:45:53.557Z,47.53
2023-05-24T04:46:53.583Z,47.27
2023-05-24T04:47:53.558Z,47.35
2023-05-24T04:48:53.569Z,47.78
2023-05-24T04:49:53.554Z,47.54
2023-05-24T04:50:53.545Z,47.27
2023-05-24T04:51:55.204Z,47.35
2023-05-24T04:52:53.548Z,47.40
2023-05-24T04:53:53.564Z,47.49
2023-05-24T04:54:53.542Z,47.42
2023-05-24T04:55:53.559Z,47.25
2023-05-24T04:56:53.530Z,47.40
2023-05-24T04:57:53.556Z,47.23
2023-05-24T04:58:53.541Z,47.19
2023-05-24T04:59:53.526Z,47.23
2023-05-24T05:00:53.542Z,47.30
2023-05-24T05:01:53.569Z,47.53
2023-05-24T05:02:53.590Z,47.45
2023-05-24T05:03:53.574Z,47.25
2023-05-24T05:04:53.524Z,47.24
2023-05-24T05:05:53.572Z,47.22
2023-05-24T05:06:53.549Z,47.17
2023-05-24T05:07:53.517Z,47.10
2023-05-24T05:08:53.534Z,47.13
2023-05-24T05:09:53.529Z,47.40
2023-05-24T05:10:53.533Z,47.17
2023-05-24T05:11:53.525Z,47.19
2023-05-24T05:12:53.533Z,47.43
2023-05-24T05:13:53.536Z,47.39
2023-05-24T05:14:53.537Z,47.82
2023-05-24T05:15:53.539Z,47.51
2023-05-24T05:16:53.580Z,47.26
2023-05-24T05:17:53.608Z,47.77
2023-05-24T05:18:53.547Z,47.53
2023-05-24T05:19:53.573Z,47.52
2023-05-24T05:20:53.547Z,47.45
2023-05-24T05:21:53.535Z,47.19
2023-05-24T05:22:53.543Z,47.24
2023-05-24T05:23:53.524Z,47.33
2023-05-24T05:24:53.551Z,47.23
2023-05-24T05:25:53.600Z,47.41
2023-05-24T05:26:53.516Z,47.18
2023-05-24T05:27:53.552Z,47.14
2023-05-24T05:28:53.509Z,47.48
2023-05-24T05:29:53.558Z,47.53
2023-05-24T05:30:53.586Z,47.79
2023-05-24T05:31:53.540Z,47.51
2023-05-24T05:32:53.651Z,47.33
2023-05-24T05:33:53.516Z,47.67
2023-05-24T05:34:53.542Z,47.33
2023-05-24T05:35:54.915Z,47.24
2023-05-24T05:36:53.556Z,47.10
2023-05-24T05:37:53.519Z,47.85
2023-05-24T05:38:53.510Z,48.19
2023-05-24T05:39:53.508Z,48.55
2023-05-24T05:40:53.567Z,48.94
2023-05-24T05:41:53.544Z,48.95
2023-05-24T05:42:53.549Z,49.31
2023-05-24T05:43:53.548Z,49.73
2023-05-24T05:44:53.500Z,50.07
2023-05-24T05:45:53.653Z,50.21
2023-05-24T05:46:53.526Z,50.29
2023-05-24T05:47:53.637Z,50.13
2023-05-24T05:48:53.572Z,50.67
2023-05-24T05:49:53.625Z,50.50
2023-05-24T05:50:53.650Z,50.72
2023-05-24T05:51:53.672Z,50.90
2023-05-24T05:52:53.681Z,50.98
2023-05-24T05:53:53.757Z,50.95
2023-05-24T05:54:53.844Z,51.24
2023-05-24T05:55:53.853Z,51.26
2023-05-24T05:56:53.916Z,51.33
2023-05-24T05:57:54.049Z,51.27
2023-05-24T05:58:54.070Z,51.34
2023-05-24T05:59:54.093Z,51.44
2023-05-24T06:00:54.163Z,51.48
2023-05-24T06:01:54.216Z,51.55
2023-05-24T06:02:54.363Z,51.51
2023-05-24T06:03:54.447Z,51.61
2023-05-24T06:04:54.478Z,51.74
2023-05-24T06:05:54.460Z,51.89
2023-05-24T06:06:54.511Z,51.93
2023-05-24T06:07:54.553Z,51.82
2023-05-24T06:08:54.611Z,52.05
2023-05-24T06:09:54.679Z,52.09
2023-05-24T06:10:54.737Z,52.30
2023-05-24T06:11:54.801Z,52.15
2023-05-24T06:12:54.883Z,52.30
2023-05-24T06:13:54.944Z,52.32
2023-05-24T06:14:54.997Z,52.36
2023-05-24T06:15:55.075Z,52.33
2023-05-24T06:16:55.775Z,52.38
2023-05-24T06:17:55.294Z,52.40
2023-05-24T06:19:05.227Z,52.46
2023-05-24T06:19:56.241Z,52.51
2023-05-24T06:20:55.214Z,52.54
2023-05-24T06:21:55.197Z,52.51
2023-05-24T06:22:55.198Z,52.61
2023-05-24T06:23:55.194Z,52.64
2023-05-24T06:24:55.164Z,52.55
2023-05-24T06:25:55.711Z,52.64
2023-05-24T06:26:55.161Z,52.60
2023-05-24T06:27:55.193Z,52.51
2023-05-24T06:28:55.233Z,52.54
2023-05-24T06:29:55.421Z,52.59
2023-05-24T06:30:55.409Z,52.68
2023-05-24T06:31:55.461Z,52.71
2023-05-24T06:32:55.492Z,52.66
2023-05-24T06:34:03.781Z,52.60
2023-05-24T06:34:56.508Z,52.67
2023-05-24T06:35:55.512Z,52.72
2023-05-24T06:36:55.500Z,52.66
2023-05-24T06:37:55.473Z,52.81
2023-05-24T06:38:55.456Z,52.75
2023-05-24T06:39:55.458Z,52.25
2023-05-24T06:40:55.471Z,52.18
2023-05-24T06:41:55.440Z,52.10
2023-05-24T06:42:55.480Z,52.23
2023-05-24T06:43:55.567Z,52.08
2023-05-24T06:44:55.544Z,52.08
2023-05-24T06:45:56.115Z,52.06
2023-05-24T06:46:56.195Z,51.56
2023-05-24T06:47:55.755Z,51.52
2023-05-24T06:48:55.855Z,51.45
2023-05-24T06:49:55.790Z,52.08
2023-05-24T06:50:55.819Z,51.82
2023-05-24T06:51:56.138Z,52.03
2023-05-24T06:52:55.894Z,52.11
2023-05-24T06:53:55.944Z,51.87
2023-05-24T06:54:55.986Z,52.10
2023-05-24T06:55:57.602Z,51.58
2023-05-24T06:56:56.067Z,51.85
2023-05-24T06:57:56.126Z,51.37
2023-05-24T06:58:56.169Z,51.14
2023-05-24T06:59:56.210Z,50.99
2023-05-24T07:00:56.343Z,51.06
2023-05-24T07:01:56.370Z,51.08
2023-05-24T07:02:56.480Z,51.02
2023-05-24T07:03:56.444Z,50.87
2023-05-24T07:04:56.634Z,50.93
2023-05-24T07:05:56.533Z,50.80
2023-05-24T07:06:56.618Z,50.89
2023-05-24T07:07:56.635Z,50.66
2023-05-24T07:08:56.690Z,50.64
2023-05-24T07:09:56.756Z,50.72
2023-05-24T07:10:56.835Z,50.55
2023-05-24T07:11:56.904Z,50.58
2023-05-24T07:12:56.957Z,50.59
2023-05-24T07:13:57.020Z,50.51
2023-05-24T07:14:57.080Z,50.66
2023-05-24T07:15:57.116Z,50.46
2023-05-24T07:16:57.216Z,50.44
2023-05-24T07:17:57.283Z,50.57
2023-05-24T07:18:57.298Z,50.37
2023-05-24T07:19:57.442Z,50.25
2023-05-24T07:20:57.418Z,50.20
2023-05-24T07:21:57.464Z,50.33
2023-05-24T07:22:57.535Z,50.35
2023-05-24T07:23:57.591Z,50.20
2023-05-24T07:24:57.708Z,50.10
2023-05-24T07:25:57.716Z,50.07
2023-05-24T07:26:57.839Z,50.07
2023-05-24T07:27:57.847Z,50.34
2023-05-24T07:28:57.890Z,50.11
2023-05-24T07:29:58.005Z,49.98
2023-05-24T07:30:58.014Z,50.12
2023-05-24T07:31:58.227Z,50.58
2023-05-24T07:32:58.728Z,50.59
2023-05-24T07:33:58.243Z,50.47
2023-05-24T07:34:58.250Z,50.68
2023-05-24T07:35:58.373Z,50.71
2023-05-24T07:36:58.481Z,50.86
2023-05-24T07:37:58.444Z,50.76
2023-05-24T07:38:58.534Z,50.98
2023-05-24T07:39:58.549Z,51.13
2023-05-24T07:40:58.657Z,50.95
2023-05-24T07:41:58.691Z,51.01
2023-05-24T07:42:58.770Z,51.27
2023-05-24T07:43:58.797Z,51.09
2023-05-24T07:44:58.841Z,51.59
2023-05-24T07:45:59.020Z,52.30
2023-05-24T07:46:59.022Z,52.55
2023-05-24T07:47:59.144Z,51.84
2023-05-24T07:48:59.144Z,51.88
2023-05-24T07:49:59.139Z,52.17
2023-05-24T07:50:59.318Z,51.67
2023-05-24T07:51:59.228Z,51.75
2023-05-24T07:52:59.395Z,51.51
2023-05-24T07:53:59.417Z,51.66
2023-05-24T07:54:59.505Z,51.84
2023-05-24T07:55:59.537Z,52.04
2023-05-24T07:56:59.610Z,51.86
2023-05-24T07:57:59.608Z,51.33
2023-05-24T07:58:59.706Z,51.81
2023-05-24T07:59:59.736Z,51.56
2023-05-24T08:00:59.813Z,51.51
2023-05-24T08:01:59.951Z,51.43
2023-05-24T08:02:59.991Z,51.29
2023-05-24T08:04:00.176Z,51.56
2023-05-24T08:05:00.040Z,52.26
2023-05-24T08:06:00.113Z,51.85
2023-05-24T08:07:00.185Z,51.76
2023-05-24T08:08:00.206Z,51.74
2023-05-24T08:09:00.229Z,51.46
2023-05-24T08:10:00.280Z,51.37
2023-05-24T08:11:00.357Z,52.05
2023-05-24T08:12:00.413Z,52.03
2023-05-24T08:13:00.461Z,51.88
2023-05-24T08:14:00.501Z,51.92
2023-05-24T08:15:00.588Z,51.45
2023-05-24T08:16:00.688Z,51.21
2023-05-24T08:17:00.670Z,50.93
2023-05-24T08:18:00.751Z,50.93
2023-05-24T08:19:00.797Z,50.87
2023-05-24T08:20:00.894Z,51.05
2023-05-24T08:21:00.891Z,50.88
2023-05-24T08:22:00.975Z,50.96
2023-05-24T08:23:01.134Z,50.64
2023-05-24T08:24:01.107Z,50.45
2023-05-24T08:25:01.108Z,50.40
2023-05-24T08:26:01.173Z,50.60
2023-05-24T08:27:01.305Z,51.35
2023-05-24T08:28:01.369Z,50.68
2023-05-24T08:29:01.372Z,50.86
2023-05-24T08:30:01.459Z,50.17
2023-05-24T08:31:01.488Z,50.62
2023-05-24T08:32:01.704Z,49.96
2023-05-24T08:33:01.654Z,49.74
2023-05-24T08:34:01.673Z,49.46
2023-05-24T08:35:14.811Z,49.58
2023-05-24T08:36:02.833Z,49.84
2023-05-24T08:37:01.731Z,49.61
2023-05-24T08:38:01.669Z,49.73
2023-05-24T08:39:01.681Z,49.40
2023-05-24T08:40:01.680Z,49.34
2023-05-24T08:41:01.673Z,49.26
2023-05-24T08:42:09.256Z,49.49
2023-05-24T08:43:02.650Z,49.22
2023-05-24T08:44:01.635Z,49.92
2023-05-24T08:45:01.644Z,51.27
2023-05-24T08:46:01.806Z,50.65
2023-05-24T08:47:01.630Z,51.12
2023-05-24T08:48:01.812Z,51.25
2023-05-24T08:49:01.642Z,51.44
2023-05-24T08:50:01.615Z,51.42
2023-05-24T08:51:01.670Z,51.35
2023-05-24T08:52:02.355Z,51.34
2023-05-24T08:53:01.790Z,51.78
2023-05-24T08:54:01.889Z,51.55
2023-05-24T08:55:01.931Z,51.70
2023-05-24T08:56:02.219Z,51.50
2023-05-24T08:57:02.048Z,51.55
2023-05-24T08:58:02.195Z,51.51
2023-05-24T08:59:02.191Z,51.47
2023-05-24T09:00:02.206Z,51.45
2023-05-24T09:01:02.286Z,51.60
2023-05-24T09:02:02.318Z,51.65
2023-05-24T09:03:02.470Z,51.54
2023-05-24T09:04:02.432Z,51.66
2023-05-24T09:05:02.447Z,51.91
2023-05-24T09:06:02.573Z,52.03
2023-05-24T09:07:02.563Z,52.00
2023-05-24T09:08:02.987Z,51.91
2023-05-24T09:09:02.648Z,51.87
2023-05-24T09:10:02.696Z,52.07
2023-05-24T09:11:02.754Z,52.07
2023-05-24T09:12:02.821Z,52.00
2023-05-24T09:13:02.851Z,52.07
2023-05-24T09:14:02.932Z,52.11
2023-05-24T09:15:02.931Z,52.17
2023-05-24T09:16:03.052Z,52.13
2023-05-24T09:17:03.038Z,52.16
2023-05-24T09:18:03.089Z,52.27
2023-05-24T09:19:03.125Z,52.35
2023-05-24T09:20:03.216Z,52.37
2023-05-24T09:21:03.185Z,52.43
2023-05-24T09:22:03.233Z,52.55
2023-05-24T09:23:03.280Z,52.47
2023-05-24T09:24:03.309Z,52.25
2023-05-24T09:25:03.363Z,52.40
2023-05-24T09:26:03.381Z,52.59
2023-05-24T09:27:03.440Z,52.70
2023-05-24T09:28:03.561Z,52.65
2023-05-24T09:29:03.534Z,52.63
2023-05-24T09:30:03.768Z,52.71
2023-05-24T09:31:06.347Z,52.81
2023-05-24T09:32:03.878Z,52.76
2023-05-24T09:33:03.719Z,51.55
2023-05-24T09:34:03.637Z,52.27
2023-05-24T09:35:03.638Z,52.02
2023-05-24T09:36:03.620Z,52.32
2023-05-24T09:37:03.710Z,49.65
2023-05-24T09:38:03.604Z,49.64
2023-05-24T09:39:03.581Z,49.60
2023-05-24T09:40:03.585Z,49.92
2023-05-24T09:41:03.641Z,50.35
2023-05-24T09:42:03.673Z,49.85
2023-05-24T09:43:03.634Z,49.86
2023-05-24T09:44:03.603Z,49.69
2023-05-24T09:45:03.573Z,49.82
2023-05-24T09:46:03.546Z,50.05
2023-05-24T09:47:03.596Z,49.89
2023-05-24T09:48:03.585Z,50.06
2023-05-24T09:49:03.570Z,49.87
2023-05-24T09:50:03.525Z,49.78
2023-05-24T09:51:03.529Z,49.92
2023-05-24T09:52:03.745Z,51.53
2023-05-24T09:53:03.506Z,51.31
2023-05-24T09:54:03.524Z,50.77
2023-05-24T09:55:03.497Z,50.26
2023-05-24T09:56:03.569Z,50.20
2023-05-24T09:57:04.886Z,50.34
2023-05-24T09:58:03.612Z,50.81
2023-05-24T09:59:03.641Z,50.47
2023-05-24T10:00:03.708Z,50.27
2023-05-24T10:01:03.821Z,49.81
2023-05-24T10:02:03.838Z,50.18
2023-05-24T10:03:03.963Z,50.04
2023-05-24T10:04:06.161Z,50.06
2023-05-24T10:05:03.943Z,50.30
2023-05-24T10:06:03.928Z,50.17
2023-05-24T10:07:03.992Z,50.32
2023-05-24T10:08:03.909Z,49.98
2023-05-24T10:09:03.922Z,50.49
2023-05-24T10:10:05.975Z,50.90
2023-05-24T10:11:03.917Z,50.35
2023-05-24T10:12:03.945Z,50.74
2023-05-24T10:13:03.901Z,50.29
2023-05-24T10:14:03.930Z,50.46
2023-05-24T10:15:03.891Z,50.80
2023-05-24T10:16:03.878Z,50.09
2023-05-24T10:17:04.001Z,50.92
2023-05-24T10:18:03.952Z,52.09
2023-05-24T10:19:03.910Z,51.33
2023-05-24T10:20:03.903Z,50.40
2023-05-24T10:21:03.954Z,50.68
2023-05-24T10:22:03.858Z,50.40
2023-05-24T10:23:03.814Z,50.61
2023-05-24T10:24:03.823Z,50.47
2023-05-24T10:25:03.813Z,50.39
2023-05-24T10:26:03.809Z,51.23
2023-05-24T10:27:03.818Z,50.11
2023-05-24T10:28:03.808Z,50.65
2023-05-24T10:29:03.811Z,50.78
2023-05-24T10:30:05.799Z,50.75
2023-05-24T10:31:03.793Z,50.56
2023-05-24T10:32:04.218Z,51.02
2023-05-24T10:33:03.841Z,51.17
2023-05-24T10:34:07.653Z,50.85
2023-05-24T10:35:03.761Z,51.35
2023-05-24T10:36:03.746Z,50.43
2023-05-24T10:37:04.237Z,50.35
2023-05-24T10:38:03.750Z,50.36
2023-05-24T10:39:03.770Z,50.59
2023-05-24T10:40:03.715Z,51.10
2023-05-24T10:41:03.738Z,51.43
2023-05-24T10:42:03.696Z,51.34
2023-05-24T10:43:03.714Z,51.57
2023-05-24T10:45:03.689Z,51.09
2023-05-24T10:46:03.694Z,50.85
2023-05-24T10:47:03.660Z,50.69
2023-05-24T10:48:03.693Z,51.41
2023-05-24T10:49:03.638Z,51.43
2023-05-24T10:50:03.646Z,51.46
2023-05-24T10:51:03.630Z,51.39
2023-05-24T10:52:03.642Z,50.96
2023-05-24T10:53:03.622Z,51.52
2023-05-24T10:54:03.596Z,51.82
2023-05-24T10:55:04.681Z,52.18
2023-05-24T10:56:03.601Z,52.84
2023-05-24T10:57:03.594Z,51.40
2023-05-24T10:58:03.571Z,51.01
2023-05-24T10:59:03.572Z,51.83
2023-05-24T11:00:03.716Z,51.57
2023-05-24T11:01:03.563Z,51.74
2023-05-24T11:02:03.616Z,52.73
2023-05-24T11:03:03.627Z,52.14
2023-05-24T11:04:03.543Z,51.86
2023-05-24T11:05:03.694Z,51.05
2023-05-24T11:06:03.589Z,50.58
2023-05-24T11:07:03.586Z,51.00
2023-05-24T11:08:03.662Z,52.66
2023-05-24T11:09:03.716Z,51.65
2023-05-24T11:10:03.772Z,52.42
2023-05-24T11:11:19.189Z,52.16
2023-05-24T11:12:04.847Z,52.31
2023-05-24T11:13:03.845Z,52.31
2023-05-24T11:14:03.843Z,51.14
2023-05-24T11:15:03.803Z,52.26
2023-05-24T11:16:03.942Z,51.69
2023-05-24T11:17:03.795Z,51.66
2023-05-24T11:18:03.853Z,50.82
2023-05-24T11:19:03.780Z,50.66
2023-05-24T11:20:03.886Z,50.51
2023-05-24T11:21:03.937Z,51.25
2023-05-24T11:41:44.585Z,52.95
2023-05-24T11:42:44.455Z,52.37
2023-05-24T11:43:44.417Z,51.22
2023-05-24T11:44:44.416Z,52.63
2023-05-24T11:45:44.470Z,51.87
2023-05-24T11:46:44.411Z,52.46
2023-05-24T11:47:44.450Z,52.24
2023-05-24T11:48:44.420Z,52.15
2023-05-24T11:49:44.379Z,51.74
2023-05-24T11:53:03.082Z,52.14
2023-05-24T11:54:03.082Z,52.00
2023-05-24T11:55:03.051Z,51.54
2023-05-24T11:56:03.092Z,51.09
2023-05-24T11:57:03.069Z,50.98
2023-05-24T11:58:03.032Z,50.72
2023-05-24T11:59:03.024Z,51.63
2023-05-24T12:00:03.024Z,52.31
2023-05-24T12:01:03.036Z,52.50
2023-05-24T12:02:03.076Z,52.42
2023-05-24T12:03:03.107Z,52.22
2023-05-24T12:04:03.124Z,52.97
2023-05-24T12:05:03.128Z,53.01
2023-05-24T12:06:02.982Z,53.05
2023-05-24T12:07:02.971Z,52.47
2023-05-24T12:08:02.964Z,52.28
2023-05-24T12:09:02.949Z,52.32
2023-05-24T12:10:02.951Z,52.30
2023-05-24T12:11:02.958Z,52.60
2023-05-24T12:12:02.949Z,52.87
2023-05-24T12:13:02.938Z,53.27
2023-05-24T12:14:02.911Z,52.89
2023-05-24T12:15:02.926Z,53.23
2023-05-24T12:16:02.957Z,53.24
2023-05-24T12:17:02.922Z,53.06
2023-05-24T12:18:03.102Z,53.26
2023-05-24T12:19:05.682Z,53.34
2023-05-24T12:20:04.039Z,52.96
2023-05-24T12:21:03.022Z,52.67
2023-05-24T12:22:03.007Z,53.16
2023-05-24T12:23:02.992Z,52.25
2023-05-24T12:24:02.994Z,52.18
2023-05-24T12:25:02.981Z,52.82
2023-05-24T12:26:02.972Z,53.07
2023-05-24T12:27:03.121Z,53.32
2023-05-24T12:28:02.972Z,52.72
2023-05-24T12:29:02.963Z,52.39
2023-05-24T12:30:03.010Z,52.77
2023-05-24T12:31:03.153Z,52.96
2023-05-24T12:32:03.120Z,53.26
2023-05-24T12:33:03.222Z,53.37
2023-05-24T12:34:03.225Z,52.90
2023-05-24T12:35:03.274Z,53.18
2023-05-24T12:36:03.329Z,53.05
2023-05-24T12:37:03.382Z,51.45
2023-05-24T12:38:03.432Z,52.92
2023-05-24T12:39:03.483Z,53.07
2023-05-24T12:40:03.528Z,53.14
2023-05-24T12:41:13.000Z,53.01
2023-05-24T12:42:04.582Z,52.93
2023-05-24T12:43:03.570Z,52.39
2023-05-24T12:44:03.575Z,52.18
2023-05-24T12:45:03.575Z,52.29
2023-05-24T12:46:03.572Z,52.48
2023-05-24T12:47:03.677Z,52.76
2023-05-24T12:48:03.571Z,52.76
2023-05-24T12:49:03.535Z,52.65
2023-05-24T12:50:03.579Z,52.01
2023-05-24T12:51:03.628Z,51.82
2023-05-24T12:52:03.706Z,52.74
2023-05-24T12:53:03.737Z,52.67
2023-05-24T12:54:03.775Z,52.84
2023-05-24T12:55:03.840Z,52.57
2023-05-24T12:56:03.909Z,51.55
2023-05-24T12:57:03.987Z,51.41
2023-05-24T12:58:04.003Z,52.32
2023-05-24T12:59:04.054Z,52.61
2023-05-24T13:00:04.102Z,52.16
2023-05-24T13:01:04.250Z,51.64
2023-05-24T13:02:04.231Z,51.51
2023-05-24T13:03:04.317Z,51.77
2023-05-24T13:04:04.318Z,51.31
2023-05-24T13:05:04.424Z,51.42
2023-05-24T13:06:04.447Z,51.55
2023-05-24T13:07:04.514Z,51.76
2023-05-24T13:08:04.559Z,51.96
2023-05-24T13:09:04.604Z,52.02
2023-05-24T13:10:04.651Z,50.74
2023-05-24T13:11:04.707Z,51.90
2023-05-24T13:12:04.770Z,51.78
2023-05-24T13:13:04.826Z,51.60
2023-05-24T13:14:04.873Z,52.44
2023-05-24T13:15:04.940Z,51.71
2023-05-24T13:16:04.979Z,51.75
2023-05-24T13:17:05.088Z,51.79
2023-05-24T13:18:05.128Z,51.54
2023-05-24T13:19:05.144Z,51.67
2023-05-24T13:20:05.314Z,50.92
2023-05-24T13:21:05.265Z,51.45
2023-05-24T13:22:05.332Z,51.35
2023-05-24T13:23:05.364Z,51.81
2023-05-24T13:24:05.430Z,52.29
2023-05-24T13:25:05.495Z,51.79
2023-05-24T13:26:05.552Z,51.64
2023-05-24T13:27:05.588Z,51.85
2023-05-24T13:28:05.649Z,52.24
2023-05-24T13:29:26.693Z,52.16
2023-05-24T13:30:06.705Z,52.30
2023-05-24T13:31:05.693Z,50.99
2023-05-24T13:32:05.694Z,51.58
2023-05-24T13:33:05.696Z,51.20
2023-05-24T13:34:05.715Z,50.61
2023-05-24T13:35:08.318Z,50.78